createdAt,value
2024-01-05T00:09:51.958Z,25.32
2024-01-05T00:25:18.072Z,25.26
2024-01-05T00:40:43.025Z,25.08
2024-01-05T00:56:08.051Z,24.83
2024-01-05T01:11:32.993Z,24.56
2024-01-05T01:26:57.944Z,24.30
2024-01-05T01:42:23.028Z,24.00
2024-01-05T01:57:47.927Z,23.78
2024-01-05T02:13:12.894Z,23.53
2024-01-05T02:28:37.919Z,23.39
2024-01-05T02:44:02.913Z,23.09
2024-01-05T02:59:27.917Z,22.87
2024-01-05T03:14:52.907Z,22.36
2024-01-05T03:30:17.969Z,21.78
2024-01-05T03:45:42.926Z,21.44
2024-01-05T04:01:07.920Z,21.08
2024-01-05T04:16:32.857Z,20.77
2024-01-05T04:31:57.827Z,20.48
2024-01-05T04:47:22.868Z,20.40
2024-01-05T05:02:47.886Z,20.24
2024-01-05T05:18:12.975Z,20.10
2024-01-05T05:33:37.948Z,19.93
2024-01-05T05:49:02.992Z,19.85
2024-01-05T06:04:27.910Z,19.31
2024-01-05T06:19:52.827Z,19.44
2024-01-05T06:35:17.804Z,19.30
2024-01-05T06:50:42.900Z,19.30
2024-01-05T07:06:07.789Z,19.18
2024-01-05T07:21:32.836Z,19.03
2024-01-05T07:36:57.789Z,19.00
2024-01-05T07:52:22.724Z,18.91
2024-01-05T08:07:47.780Z,18.76
2024-01-05T08:23:12.748Z,18.74
2024-01-05T08:38:37.672Z,18.76
2024-01-05T08:54:02.694Z,19.15
2024-01-05T09:09:27.753Z,19.15
2024-01-05T09:24:52.685Z,18.82
2024-01-05T09:40:17.659Z,18.66
2024-01-05T09:55:42.637Z,18.56
2024-01-05T10:11:07.595Z,18.60
2024-01-05T10:26:32.618Z,19.38
2024-01-05T10:41:57.648Z,20.02
2024-01-05T10:57:22.761Z,20.51
2024-01-05T11:12:47.660Z,20.96
2024-01-05T11:28:12.606Z,21.45
2024-01-05T11:43:37.580Z,21.93
2024-01-05T11:59:02.581Z,22.28
2024-01-05T12:14:27.534Z,22.47
2024-01-05T12:29:53.601Z,22.75
2024-01-05T12:45:18.551Z,23.11
2024-01-05T13:00:44.800Z,23.33
2024-01-05T13:16:09.584Z,23.57
2024-01-05T13:31:34.717Z,23.68
2024-01-05T13:46:59.590Z,23.70
2024-01-05T14:02:24.519Z,23.77
2024-01-05T14:17:49.537Z,23.80
2024-01-05T14:33:14.533Z,23.84
2024-01-05T14:48:39.702Z,23.85
2024-01-05T15:04:04.646Z,23.99
2024-01-05T15:19:29.608Z,24.00
2024-01-05T15:34:54.525Z,24.02
2024-01-05T15:50:19.493Z,24.06
2024-01-05T16:05:44.499Z,24.27
2024-01-05T16:21:09.445Z,24.53
2024-01-05T16:36:34.431Z,24.63
2024-01-05T16:51:59.465Z,24.69
2024-01-05T17:07:24.358Z,24.66
2024-01-05T17:22:49.406Z,24.52
2024-01-05T17:38:14.410Z,24.31
2024-01-05T17:53:39.450Z,24.09
2024-01-05T18:09:04.438Z,23.82
2024-01-05T18:24:29.592Z,23.57
2024-01-05T18:39:54.454Z,23.33
2024-01-05T18:55:19.344Z,23.00
2024-01-05T19:10:45.345Z,22.91
2024-01-05T19:26:10.350Z,22.74
2024-01-05T19:41:35.327Z,22.56
2024-01-05T19:57:00.340Z,22.20
2024-01-05T20:12:25.351Z,21.72
2024-01-05T20:27:50.413Z,21.19
2024-01-05T20:43:15.309Z,20.77
2024-01-05T20:58:42.424Z,20.53
2024-01-05T21:14:05.304Z,20.34
2024-01-05T21:29:31.252Z,20.18
2024-01-05T21:44:56.276Z,20.79
2024-01-05T22:00:21.281Z,21.39
2024-01-05T22:15:46.191Z,21.80
2024-01-05T22:31:11.376Z,22.09
2024-01-05T22:46:36.174Z,22.36
2024-01-05T23:02:01.280Z,22.57
2024-01-05T23:17:26.234Z,22.78
2024-01-05T23:32:51.209Z,22.95
2024-01-05T23:48:16.313Z,23.28
